Buoy 46535

sailwx.info

Track history (hours):
 
Tides and Currents Weather Stations Pressure Air Temp Water Temp Dewpoint Dewpoint Depression Visibility Wind Speed Wind Dir Waves Ship Positions

Drifting buoy 46535

Last reported at 2015-Jul-30 14:50 UTC. Time now 2015-Jul-30 18:13 UTC.
Position N 55°20' W 169°54'.

Barometer 1018.1 mb
Water temperature 11.0 ° C

Date/timePositionNaut miles runAvg speedWind from/ knotsBaromVisibWave heightAir tempDewpointWater temp
2015-Jul-30 14:50N 55°20' W 169°54'0 0.0 1018.1 11.0
2015-Jul-30 13:50N 55°20' W 169°54'4 0.7 1018.1 11.0
2015-Jul-30 08:50N 55°17' W 169°53'2 0.6 1017.7 11.1
2015-Jul-30 05:50N 55°16' W 169°50'1 0.8 1017.4 11.4
2015-Jul-30 04:50N 55°15' W 169°49'1 0.3 1017.1 11.4
2015-Jul-30 01:50N 55°15' W 169°48'1 0.5 1017.1 11.3
2015-Jul-30 00:50N 55°15' W 169°47'1 1.2 1017.6 11.0
2015-Jul-29 23:50N 55°14' W 169°48'1 0.5 1017.9 10.8
2015-Jul-29 21:50N 55°13' W 169°48'1 1.2 1017.9 10.5
2015-Jul-29 20:50N 55°12' W 169°46'1 1.0 1017.7 10.4
2015-Jul-29 19:50N 55°12' W 169°44'1 0.4 1017.5 10.4
2015-Jul-29 16:50N 55°12' W 169°42'0 0.2 1017.0 10.3
2015-Jul-29 15:50N 55°12' W 169°42'1 0.8 1016.9 10.3
2015-Jul-29 14:50N 55°12' W 169°40'0 0.4 1016.8 10.3
2015-Jul-29 13:50N 55°12' W 169°40'1 0.5 1016.8 10.3
2015-Jul-29 11:50N 55°12' W 169°38'0 0.0 1017.1 10.3
2015-Jul-29 10:50N 55°12' W 169°38'2 0.6 1017.3 10.3
2015-Jul-29 06:50N 55°12' W 169°34'0 0.2 1016.7 10.4
2015-Jul-29 04:50N 55°12' W 169°34'2 0.6 1016.4 10.5
2015-Jul-29 01:50N 55°12' W 169°31'2 0.6 1016.4 10.4
2015-Jul-28 22:50N 55°13' W 169°28'0 0.2 1016.2 10.1
2015-Jul-28 21:50N 55°13' W 169°28'1 0.7 1015.8 10.0
2015-Jul-28 20:50N 55°14' W 169°27'2 0.4 1015.6 9.9
2015-Jul-28 15:50N 55°15' W 169°26'1 0.8 1014.6 9.8
2015-Jul-28 14:50N 55°16' W 169°25'0 0.2 1014.7 9.8
2015-Jul-28 13:50N 55°16' W 169°25'1 0.5 1014.5 9.8
2015-Jul-28 11:50N 55°16' W 169°23'1 1.2 1014.8 9.8
2015-Jul-28 10:50N 55°17' W 169°22'0 0.0 1014.8 9.8
2015-Jul-28 09:50N 55°17' W 169°22'3 0.6 1014.7 9.8
2015-Jul-28 04:50N 55°20' W 169°21'0 0.4 1014.7 9.8
2015-Jul-28 03:50N 55°20' W 169°22'1 0.4 1014.9 9.8
2015-Jul-27 23:50N 55°22' W 169°22'3 0.6 1015.9 9.8
2015-Jul-27 19:50N 55°24' W 169°19'2 0.9 1016.0 9.7
2015-Jul-27 17:50N 55°26' W 169°20'3 0.8 1015.9 9.6
2015-Jul-27 13:50N 55°28' W 169°24'1 0.5 1016.2 9.6
2015-Jul-27 11:50N 55°29' W 169°24'1 0.3 1016.8 9.6
2015-Jul-27 07:50N 55°30' W 169°24'3 0.7 1017.8 9.6
2015-Jul-27 03:50N 55°32' W 169°26'2 0.8 1018.8 9.6
2015-Jul-27 01:50N 55°33' W 169°29'2 0.9 1019.3 9.6
2015-Jul-26 23:50N 55°33' W 169°32'0 0.0 1019.5 9.6
2015-Jul-26 22:50N 55°33' W 169°32'1 0.5 1019.8 9.6
2015-Jul-26 21:50N 55°33' W 169°33'0 0.0 1019.9 9.6
2015-Jul-26 20:50N 55°33' W 169°33'1 0.7 1019.7 9.6
2015-Jul-26 19:50N 55°34' W 169°34'0 0.0 1019.6 9.6
2015-Jul-26 18:50N 55°34' W 169°34'0 0.0 1019.5 9.6
2015-Jul-26 17:50N 55°34' W 169°34'1 0.8 1019.5 9.6
2015-Jul-26 16:50N 55°34' W 169°35'0 0.4 1019.2 9.6
2015-Jul-26 15:50N 55°34' W 169°34'1 0.7 1018.6 9.6
2015-Jul-26 14:50N 55°34' W 169°35'1 1.1 1018.1 9.6
2015-Jul-26 13:50N 55°35' W 169°37'1 0.3 1017.9 9.6
2015-Jul-26 11:50N 55°35' W 169°38'1 0.4 1017.4 9.6
2015-Jul-26 08:50N 55°35' W 169°40'0 0.4 1016.8 9.6
2015-Jul-26 07:50N 55°35' W 169°40'0 0.4 1016.6 9.6
2015-Jul-26 06:50N 55°35' W 169°41'0 0.2 1016.2 9.6
2015-Jul-26 05:50N 55°35' W 169°41'0 0.3 1016.2 9.6
2015-Jul-26 04:50N 55°34' W 169°42'1 0.9 1016.2 9.6
2015-Jul-26 03:50N 55°34' W 169°43'0 0.0 1016.1 9.6
2015-Jul-26 02:50N 55°34' W 169°43'1 0.7 1016.3 9.6
2015-Jul-26 01:50N 55°33' W 169°44'1 0.5 1016.2 9.6
2015-Jul-26 00:50N 55°33' W 169°45'1 0.6 1016.3 9.6
2015-Jul-25 23:50N 55°32' W 169°45'0 0.0 1016.5 9.6
2015-Jul-25 21:50N 55°32' W 169°45'1 0.9 1016.4 9.6
2015-Jul-25 20:50N 55°32' W 169°46'0 0.0 1016.3 9.6
2015-Jul-25 19:50N 55°32' W 169°46'2 0.6 1016.1 9.6
2015-Jul-25 16:50N 55°31' W 169°49'0 0.3 1015.5 9.6
2015-Jul-25 15:50N 55°31' W 169°49'0 0.2 1015.3 9.6
2015-Jul-25 14:50N 55°30' W 169°49'4 0.6 1015.1 9.6
2015-Jul-25 08:50N 55°27' W 169°51'1 0.6 1016.9 9.6
2015-Jul-25 07:50N 55°26' W 169°51'1 0.6 1016.7 9.6
2015-Jul-25 06:50N 55°26' W 169°51'0 0.5 1016.6 9.6
2015-Jul-25 05:50N 55°25' W 169°51'1 0.6 1016.8 9.6
2015-Jul-25 03:50N 55°24' W 169°50'0 0.3 1016.9 9.6
2015-Jul-25 02:50N 55°24' W 169°51'1 0.6 1016.5 9.6
2015-Jul-25 01:50N 55°23' W 169°51'0 0.2 1016.8 9.7
2015-Jul-25 00:50N 55°23' W 169°51'7 1.3 1016.9 9.7
2015-Jul-24 19:50N 55°17' W 169°53'2 0.8 1015.3 9.6
2015-Jul-24 16:50N 55°15' W 169°51'0 0.4 1013.3 9.6
2015-Jul-24 15:50N 55°15' W 169°51'12 0.6 1012.3 9.6
2015-Jul-23 20:50N 55°04' W 169°42'1 0.4 1015.8 9.6
2015-Jul-23 17:50N 55°03' W 169°40'0 0.1 1015.8 9.7
2015-Jul-23 16:50N 55°03' W 169°40'0 0.1 1015.6 9.7
2015-Jul-23 15:50N 55°03' W 169°40'3 1.0 1015.6 9.7
2015-Jul-23 12:50N 55°00' W 169°41'3 0.5 1016.2 9.7
2015-Jul-23 05:50N 54°58' W 169°36'2 1.5 1017.2 9.7
2015-Jul-23 04:50N 54°59' W 169°34'0 0.0 1017.1 9.7
2015-Jul-23 03:50N 54°59' W 169°34'0 0.3 1017.0 9.7
2015-Jul-23 02:50N 54°59' W 169°33'1 0.3 1016.4 9.7
2015-Jul-22 22:50N 54°58' W 169°35'0 0.0 1014.6 9.7
2015-Jul-22 21:50N 54°58' W 169°35'2 0.6 1013.9 9.7
2015-Jul-22 17:50N 54°57' W 169°32'1 0.1 1011.6 9.8
2015-Jul-22 07:50N 54°58' W 169°30'2 0.6 1010.1 10.0
2015-Jul-22 04:50N 54°56' W 169°27'2 0.5 1010.4 10.0
2015-Jul-22 00:50N 54°56' W 169°24'0 0.0 1010.8 10.0
2015-Jul-21 23:50N 54°56' W 169°24'2 0.4 1011.2 10.0
2015-Jul-21 19:50N 54°55' W 169°21'0 0.5 1012.1 9.8
2015-Jul-21 18:50N 54°56' W 169°21'1 0.3 1012.3 9.8
2015-Jul-21 16:50N 54°55' W 169°20'0 0.1 1011.9 9.8
2015-Jul-21 15:50N 54°55' W 169°20'1 0.8 1012.1 9.8
2015-Jul-21 14:50N 54°55' W 169°19'0 0.0 1012.4 9.9
2015-Jul-21 13:50N 54°55' W 169°19'4 0.4 1012.3 9.9
2015-Jul-21 04:50N 54°55' W 169°13'1 0.4 1009.0 9.9
2015-Jul-21 02:50N 54°56' W 169°13'0 0.1 1008.1 10.0
2015-Jul-21 01:50N 54°56' W 169°13'1 1.4 1007.2 10.0
2015-Jul-21 00:50N 54°56' W 169°15'1 1.2 1006.8 10.0
2015-Jul-20 23:50N 54°55' W 169°13'1 0.8 1006.4 9.9
2015-Jul-20 22:50N 54°55' W 169°12'1 0.5 1006.0 9.9
2015-Jul-20 20:50N 54°55' W 169°10'1 0.9 1006.0 9.8
2015-Jul-20 19:50N 54°55' W 169°09'1 0.6 1006.6 9.8
2015-Jul-20 18:50N 54°55' W 169°08'1 0.8 1007.5 9.8
2015-Jul-20 17:50N 54°55' W 169°06'0 0.2 1008.9 9.8
2015-Jul-20 16:50N 54°55' W 169°07'1 1.1 1009.9 9.8
2015-Jul-20 15:50N 54°56' W 169°06'1 0.6 1011.2 9.8
2015-Jul-20 14:50N 54°55' W 169°05'   1013.2 9.9
Track history (hours):
 
Tides and Currents Weather Stations Pressure Air Temp Water Temp Dewpoint Dewpoint Depression Visibility Wind Speed Wind Dir Waves Ship Positions

Drifting buoy 46535

Last reported at 2015-Jul-30 14:50 UTC. Time now 2015-Jul-30 18:13 UTC.
Position N 55°20' W 169°54'.

Barometer 1018.1 mb
Water temperature 11.0 ° C

Date/timePositionNaut miles runAvg speedWind from/ knotsBaromVisibWave heightAir tempDewpointWater temp
2015-Jul-30 14:50N 55°20' W 169°54'0 0.0 1018.1 11.0
2015-Jul-30 13:50N 55°20' W 169°54'4 0.7 1018.1 11.0
2015-Jul-30 08:50N 55°17' W 169°53'2 0.6 1017.7 11.1
2015-Jul-30 05:50N 55°16' W 169°50'1 0.8 1017.4 11.4
2015-Jul-30 04:50N 55°15' W 169°49'1 0.3 1017.1 11.4
2015-Jul-30 01:50N 55°15' W 169°48'1 0.5 1017.1 11.3
2015-Jul-30 00:50N 55°15' W 169°47'1 1.2 1017.6 11.0
2015-Jul-29 23:50N 55°14' W 169°48'1 0.5 1017.9 10.8
2015-Jul-29 21:50N 55°13' W 169°48'1 1.2 1017.9 10.5
2015-Jul-29 20:50N 55°12' W 169°46'1 1.0 1017.7 10.4
2015-Jul-29 19:50N 55°12' W 169°44'1 0.4 1017.5 10.4
2015-Jul-29 16:50N 55°12' W 169°42'0 0.2 1017.0 10.3
2015-Jul-29 15:50N 55°12' W 169°42'1 0.8 1016.9 10.3
2015-Jul-29 14:50N 55°12' W 169°40'0 0.4 1016.8 10.3
2015-Jul-29 13:50N 55°12' W 169°40'1 0.5 1016.8 10.3
2015-Jul-29 11:50N 55°12' W 169°38'0 0.0 1017.1 10.3
2015-Jul-29 10:50N 55°12' W 169°38'2 0.6 1017.3 10.3
2015-Jul-29 06:50N 55°12' W 169°34'0 0.2 1016.7 10.4
2015-Jul-29 04:50N 55°12' W 169°34'2 0.6 1016.4 10.5
2015-Jul-29 01:50N 55°12' W 169°31'2 0.6 1016.4 10.4
2015-Jul-28 22:50N 55°13' W 169°28'0 0.2 1016.2 10.1
2015-Jul-28 21:50N 55°13' W 169°28'1 0.7 1015.8 10.0
2015-Jul-28 20:50N 55°14' W 169°27'2 0.4 1015.6 9.9
2015-Jul-28 15:50N 55°15' W 169°26'1 0.8 1014.6 9.8
2015-Jul-28 14:50N 55°16' W 169°25'0 0.2 1014.7 9.8
2015-Jul-28 13:50N 55°16' W 169°25'1 0.5 1014.5 9.8
2015-Jul-28 11:50N 55°16' W 169°23'1 1.2 1014.8 9.8
2015-Jul-28 10:50N 55°17' W 169°22'0 0.0 1014.8 9.8
2015-Jul-28 09:50N 55°17' W 169°22'3 0.6 1014.7 9.8
2015-Jul-28 04:50N 55°20' W 169°21'0 0.4 1014.7 9.8
2015-Jul-28 03:50N 55°20' W 169°22'1 0.4 1014.9 9.8
2015-Jul-27 23:50N 55°22' W 169°22'3 0.6 1015.9 9.8
2015-Jul-27 19:50N 55°24' W 169°19'2 0.9 1016.0 9.7
2015-Jul-27 17:50N 55°26' W 169°20'3 0.8 1015.9 9.6
2015-Jul-27 13:50N 55°28' W 169°24'1 0.5 1016.2 9.6
2015-Jul-27 11:50N 55°29' W 169°24'1 0.3 1016.8 9.6
2015-Jul-27 07:50N 55°30' W 169°24'3 0.7 1017.8 9.6
2015-Jul-27 03:50N 55°32' W 169°26'2 0.8 1018.8 9.6
2015-Jul-27 01:50N 55°33' W 169°29'2 0.9 1019.3 9.6
2015-Jul-26 23:50N 55°33' W 169°32'0 0.0 1019.5 9.6
2015-Jul-26 22:50N 55°33' W 169°32'1 0.5 1019.8 9.6
2015-Jul-26 21:50N 55°33' W 169°33'0 0.0 1019.9 9.6
2015-Jul-26 20:50N 55°33' W 169°33'1 0.7 1019.7 9.6
2015-Jul-26 19:50N 55°34' W 169°34'0 0.0 1019.6 9.6
2015-Jul-26 18:50N 55°34' W 169°34'0 0.0 1019.5 9.6
2015-Jul-26 17:50N 55°34' W 169°34'1 0.8 1019.5 9.6
2015-Jul-26 16:50N 55°34' W 169°35'0 0.4 1019.2 9.6
2015-Jul-26 15:50N 55°34' W 169°34'1 0.7 1018.6 9.6
2015-Jul-26 14:50N 55°34' W 169°35'1 1.1 1018.1 9.6
2015-Jul-26 13:50N 55°35' W 169°37'1 0.3 1017.9 9.6
2015-Jul-26 11:50N 55°35' W 169°38'1 0.4 1017.4 9.6
2015-Jul-26 08:50N 55°35' W 169°40'0 0.4 1016.8 9.6
2015-Jul-26 07:50N 55°35' W 169°40'0 0.4 1016.6 9.6
2015-Jul-26 06:50N 55°35' W 169°41'0 0.2 1016.2 9.6
2015-Jul-26 05:50N 55°35' W 169°41'0 0.3 1016.2 9.6
2015-Jul-26 04:50N 55°34' W 169°42'1 0.9 1016.2 9.6
2015-Jul-26 03:50N 55°34' W 169°43'0 0.0 1016.1 9.6
2015-Jul-26 02:50N 55°34' W 169°43'1 0.7 1016.3 9.6
2015-Jul-26 01:50N 55°33' W 169°44'1 0.5 1016.2 9.6
2015-Jul-26 00:50N 55°33' W 169°45'1 0.6 1016.3 9.6
2015-Jul-25 23:50N 55°32' W 169°45'0 0.0 1016.5 9.6
2015-Jul-25 21:50N 55°32' W 169°45'1 0.9 1016.4 9.6
2015-Jul-25 20:50N 55°32' W 169°46'0 0.0 1016.3 9.6
2015-Jul-25 19:50N 55°32' W 169°46'2 0.6 1016.1 9.6
2015-Jul-25 16:50N 55°31' W 169°49'0 0.3 1015.5 9.6
2015-Jul-25 15:50N 55°31' W 169°49'0 0.2 1015.3 9.6
2015-Jul-25 14:50N 55°30' W 169°49'4 0.6 1015.1 9.6
2015-Jul-25 08:50N 55°27' W 169°51'1 0.6 1016.9 9.6
2015-Jul-25 07:50N 55°26' W 169°51'1 0.6 1016.7 9.6
2015-Jul-25 06:50N 55°26' W 169°51'0 0.5 1016.6 9.6
2015-Jul-25 05:50N 55°25' W 169°51'1 0.6 1016.8 9.6
2015-Jul-25 03:50N 55°24' W 169°50'0 0.3 1016.9 9.6
2015-Jul-25 02:50N 55°24' W 169°51'1 0.6 1016.5 9.6
2015-Jul-25 01:50N 55°23' W 169°51'0 0.2 1016.8 9.7
2015-Jul-25 00:50N 55°23' W 169°51'7 1.3 1016.9 9.7
2015-Jul-24 19:50N 55°17' W 169°53'2 0.8 1015.3 9.6
2015-Jul-24 16:50N 55°15' W 169°51'0 0.4 1013.3 9.6
2015-Jul-24 15:50N 55°15' W 169°51'12 0.6 1012.3 9.6
2015-Jul-23 20:50N 55°04' W 169°42'1 0.4 1015.8 9.6
2015-Jul-23 17:50N 55°03' W 169°40'0 0.1 1015.8 9.7
2015-Jul-23 16:50N 55°03' W 169°40'0 0.1 1015.6 9.7
2015-Jul-23 15:50N 55°03' W 169°40'3 1.0 1015.6 9.7
2015-Jul-23 12:50N 55°00' W 169°41'3 0.5 1016.2 9.7
2015-Jul-23 05:50N 54°58' W 169°36'2 1.5 1017.2 9.7
2015-Jul-23 04:50N 54°59' W 169°34'0 0.0 1017.1 9.7
2015-Jul-23 03:50N 54°59' W 169°34'0 0.3 1017.0 9.7
2015-Jul-23 02:50N 54°59' W 169°33'1 0.3 1016.4 9.7
2015-Jul-22 22:50N 54°58' W 169°35'0 0.0 1014.6 9.7
2015-Jul-22 21:50N 54°58' W 169°35'2 0.6 1013.9 9.7
2015-Jul-22 17:50N 54°57' W 169°32'1 0.1 1011.6 9.8
2015-Jul-22 07:50N 54°58' W 169°30'2 0.6 1010.1 10.0
2015-Jul-22 04:50N 54°56' W 169°27'2 0.5 1010.4 10.0
2015-Jul-22 00:50N 54°56' W 169°24'0 0.0 1010.8 10.0
2015-Jul-21 23:50N 54°56' W 169°24'2 0.4 1011.2 10.0
2015-Jul-21 19:50N 54°55' W 169°21'0 0.5 1012.1 9.8
2015-Jul-21 18:50N 54°56' W 169°21'1 0.3 1012.3 9.8
2015-Jul-21 16:50N 54°55' W 169°20'0 0.1 1011.9 9.8
2015-Jul-21 15:50N 54°55' W 169°20'1 0.8 1012.1 9.8
2015-Jul-21 14:50N 54°55' W 169°19'0 0.0 1012.4 9.9
2015-Jul-21 13:50N 54°55' W 169°19'4 0.4 1012.3 9.9
2015-Jul-21 04:50N 54°55' W 169°13'1 0.4 1009.0 9.9
2015-Jul-21 02:50N 54°56' W 169°13'0 0.1 1008.1 10.0
2015-Jul-21 01:50N 54°56' W 169°13'1 1.4 1007.2 10.0
2015-Jul-21 00:50N 54°56' W 169°15'1 1.2 1006.8 10.0
2015-Jul-20 23:50N 54°55' W 169°13'1 0.8 1006.4 9.9
2015-Jul-20 22:50N 54°55' W 169°12'1 0.5 1006.0 9.9
2015-Jul-20 20:50N 54°55' W 169°10'1 0.9 1006.0 9.8
2015-Jul-20 19:50N 54°55' W 169°09'1 0.6 1006.6 9.8
2015-Jul-20 18:50N 54°55' W 169°08'1 0.8 1007.5 9.8
2015-Jul-20 17:50N 54°55' W 169°06'0 0.2 1008.9 9.8
2015-Jul-20 16:50N 54°55' W 169°07'1 1.1 1009.9 9.8
2015-Jul-20 15:50N 54°56' W 169°06'1 0.6 1011.2 9.8
2015-Jul-20 14:50N 54°55' W 169°05'   1013.2 9.9

Dump ship's entire track history